Terminal Aerodrome Forecast
Issued by NWS

Home | Current Version | Previous Version | Text Only | Print | Product List | Glossary On
Versions: 1 2 3 4 5 6 7 8 9 10 11 12 13 14 15 16 17 18 19 20 21 22 23 24 25
646
FTUS46 KMTR 210528
TAFSFO
TAF
KSFO 210528Z 2106/2212 26005KT P6SM SCT050 BKN100
     FM211200 13004KT P6SM VCSH SCT030 BKN050
     FM211800 10005KT P6SM SCT050
     FM212200 19006KT P6SM SCT050
     FM220000 26006KT P6SM FEW015 SCT100
     FM220600 VRB03KT P6SM BKN015=

USA.gov is the U.S. government's official web portal to all federal, state and local government web resources and services.